sensor_id;sensor_type;location;lat;lon;timestamp;pressure;altitude;pressure_sealevel;temperature;humidity
50592;BME280;36548;50.506;30.834;2022-12-18T00:00:16;100215.84;;;2.81;70.24
50592;BME280;36548;50.506;30.834;2022-12-18T00:01:29;100225.83;;;2.73;70.55
50592;BME280;36548;50.506;30.834;2022-12-18T00:02:41;100228.42;;;2.75;70.70
50592;BME280;36548;50.506;30.834;2022-12-18T00:03:51;100229.92;;;2.83;71.07
50592;BME280;36548;50.506;30.834;2022-12-18T00:05:01;100230.78;;;2.84;70.55
50592;BME280;36548;50.506;30.834;2022-12-18T00:06:11;100239.51;;;2.87;70.32
50592;BME280;36548;50.506;30.834;2022-12-18T00:07:20;100238.52;;;2.90;69.85
50592;BME280;36548;50.506;30.834;2022-12-18T00:08:30;100234.90;;;2.93;69.79
50592;BME280;36548;50.506;30.834;2022-12-18T00:09:40;100247.20;;;2.95;69.61
50592;BME280;36548;50.506;30.834;2022-12-18T00:10:50;100240.07;;;2.97;69.66
50592;BME280;36548;50.506;30.834;2022-12-18T00:12:00;100242.72;;;2.97;69.85
50592;BME280;36548;50.506;30.834;2022-12-18T00:13:17;100251.83;;;2.88;69.86
50592;BME280;36548;50.506;30.834;2022-12-18T00:14:26;100253.16;;;2.75;69.97
50592;BME280;36548;50.506;30.834;2022-12-18T00:15:36;100249.87;;;2.38;69.84
50592;BME280;36548;50.506;30.834;2022-12-18T00:16:46;100241.85;;;2.42;70.50
50592;BME280;36548;50.506;30.834;2022-12-18T00:17:56;100240.33;;;2.33;70.86
50592;BME280;36548;50.506;30.834;2022-12-18T00:19:05;100252.64;;;2.06;70.80
50592;BME280;36548;50.506;30.834;2022-12-18T00:20:21;100251.00;;;2.01;71.65
50592;BME280;36548;50.506;30.834;2022-12-18T00:21:33;100250.16;;;1.99;72.10
50592;BME280;36548;50.506;30.834;2022-12-18T00:22:42;100246.41;;;2.07;72.24
50592;BME280;36548;50.506;30.834;2022-12-18T00:24:02;100251.44;;;2.16;72.03
50592;BME280;36548;50.506;30.834;2022-12-18T00:25:12;100250.29;;;2.25;71.82
50592;BME280;36548;50.506;30.834;2022-12-18T00:26:29;100245.20;;;2.47;71.45
50592;BME280;36548;50.506;30.834;2022-12-18T00:27:40;100250.45;;;2.48;71.52
50592;BME280;36548;50.506;30.834;2022-12-18T00:28:49;100260.14;;;2.49;70.40
50592;BME280;36548;50.506;30.834;2022-12-18T00:29:59;100254.73;;;2.52;70.15
50592;BME280;36548;50.506;30.834;2022-12-18T00:31:12;100258.07;;;2.59;70.03
50592;BME280;36548;50.506;30.834;2022-12-18T00:32:21;100251.91;;;2.59;69.34
50592;BME280;36548;50.506;30.834;2022-12-18T00:33:32;100245.55;;;2.64;69.51
50592;BME280;36548;50.506;30.834;2022-12-18T00:34:41;100244.37;;;2.73;69.58
50592;BME280;36548;50.506;30.834;2022-12-18T00:35:50;100257.50;;;2.78;69.55
50592;BME280;36548;50.506;30.834;2022-12-18T00:37:01;100258.40;;;2.48;68.76
50592;BME280;36548;50.506;30.834;2022-12-18T00:38:10;100246.09;;;2.47;69.27
50592;BME280;36548;50.506;30.834;2022-12-18T00:39:25;100263.58;;;2.53;69.74
50592;BME280;36548;50.506;30.834;2022-12-18T00:40:35;100265.91;;;2.34;69.97
50592;BME280;36548;50.506;30.834;2022-12-18T00:41:44;100261.84;;;2.22;70.40
50592;BME280;36548;50.506;30.834;2022-12-18T00:43:12;100262.89;;;2.16;70.64
50592;BME280;36548;50.506;30.834;2022-12-18T00:44:22;100270.13;;;2.11;71.24
50592;BME280;36548;50.506;30.834;2022-12-18T00:45:37;100268.98;;;2.20;71.38
50592;BME280;36548;50.506;30.834;2022-12-18T00:46:48;100260.66;;;2.02;70.80
50592;BME280;36548;50.506;30.834;2022-12-18T00:47:57;100266.59;;;2.11;70.91
50592;BME280;36548;50.506;30.834;2022-12-18T00:49:07;100274.37;;;2.17;70.72
50592;BME280;36548;50.506;30.834;2022-12-18T00:50:16;100264.83;;;2.11;70.43
50592;BME280;36548;50.506;30.834;2022-12-18T00:51:26;100271.84;;;2.12;70.57
50592;BME280;36548;50.506;30.834;2022-12-18T00:52:42;100270.58;;;2.26;70.61
50592;BME280;36548;50.506;30.834;2022-12-18T00:53:51;100272.12;;;2.33;70.58
50592;BME280;36548;50.506;30.834;2022-12-18T00:54:59;100272.48;;;2.20;70.41
50592;BME280;36548;50.506;30.834;2022-12-18T00:56:14;100272.53;;;2.19;70.03
50592;BME280;36548;50.506;30.834;2022-12-18T00:57:23;100269.52;;;2.31;70.10
50592;BME280;36548;50.506;30.834;2022-12-18T00:58:35;100267.41;;;2.43;70.23
50592;BME280;36548;50.506;30.834;2022-12-18T00:59:45;100267.66;;;2.35;69.62
50592;BME280;36548;50.506;30.834;2022-12-18T01:01:00;100267.28;;;2.47;69.55
50592;BME280;36548;50.506;30.834;2022-12-18T01:02:09;100278.89;;;2.43;69.56
50592;BME280;36548;50.506;30.834;2022-12-18T01:03:18;100261.16;;;2.45;69.25
50592;BME280;36548;50.506;30.834;2022-12-18T01:04:33;100276.24;;;2.43;69.26
50592;BME280;36548;50.506;30.834;2022-12-18T01:05:42;100269.09;;;2.45;69.49
50592;BME280;36548;50.506;30.834;2022-12-18T01:06:53;100281.77;;;2.35;69.57
50592;BME280;36548;50.506;30.834;2022-12-18T01:08:09;100284.51;;;2.32;70.00
50592;BME280;36548;50.506;30.834;2022-12-18T01:09:18;100283.08;;;2.20;70.62
50592;BME280;36548;50.506;30.834;2022-12-18T01:10:28;100282.48;;;2.11;70.69
50592;BME280;36548;50.506;30.834;2022-12-18T01:11:39;100297.25;;;1.88;70.63
50592;BME280;36548;50.506;30.834;2022-12-18T01:12:52;100292.56;;;1.98;71.01
50592;BME280;36548;50.506;30.834;2022-12-18T01:14:00;100285.48;;;1.98;70.93
50592;BME280;36548;50.506;30.834;2022-12-18T01:15:12;100288.66;;;2.11;71.08
50592;BME280;36548;50.506;30.834;2022-12-18T01:16:24;100287.06;;;2.06;70.05
50592;BME280;36548;50.506;30.834;2022-12-18T01:17:39;100278.93;;;2.12;70.30
50592;BME280;36548;50.506;30.834;2022-12-18T01:18:53;100288.97;;;2.00;69.79
50592;BME280;36548;50.506;30.834;2022-12-18T01:20:04;100288.62;;;2.13;69.77
50592;BME280;36548;50.506;30.834;2022-12-18T01:21:15;100285.83;;;2.17;69.44
50592;BME280;36548;50.506;30.834;2022-12-18T01:22:35;100281.22;;;2.24;68.65
50592;BME280;36548;50.506;30.834;2022-12-18T01:23:44;100289.73;;;2.04;68.64
50592;BME280;36548;50.506;30.834;2022-12-18T01:24:54;100297.00;;;1.97;69.17
50592;BME280;36548;50.506;30.834;2022-12-18T01:26:09;100305.01;;;1.94;70.05
50592;BME280;36548;50.506;30.834;2022-12-18T01:27:20;100310.48;;;1.88;70.33
50592;BME280;36548;50.506;30.834;2022-12-18T01:28:29;100310.53;;;1.86;70.86
50592;BME280;36548;50.506;30.834;2022-12-18T01:29:38;100315.08;;;1.81;70.47
50592;BME280;36548;50.506;30.834;2022-12-18T01:30:48;100320.46;;;1.78;70.04
50592;BME280;36548;50.506;30.834;2022-12-18T01:31:57;100321.23;;;1.82;69.85
50592;BME280;36548;50.506;30.834;2022-12-18T01:33:06;100327.55;;;1.78;69.37
50592;BME280;36548;50.506;30.834;2022-12-18T01:34:16;100335.17;;;1.88;69.71
50592;BME280;36548;50.506;30.834;2022-12-18T01:35:25;100336.30;;;1.80;69.67
50592;BME280;36548;50.506;30.834;2022-12-18T01:36:37;100339.61;;;1.88;70.24
50592;BME280;36548;50.506;30.834;2022-12-18T01:37:48;100329.92;;;1.87;70.39
50592;BME280;36548;50.506;30.834;2022-12-18T01:39:03;100341.64;;;1.78;70.56
50592;BME280;36548;50.506;30.834;2022-12-18T01:40:13;100334.59;;;1.77;70.72
50592;BME280;36548;50.506;30.834;2022-12-18T01:41:27;100347.70;;;1.82;70.99
50592;BME280;36548;50.506;30.834;2022-12-18T01:42:40;100336.96;;;1.88;70.73
50592;BME280;36548;50.506;30.834;2022-12-18T01:43:52;100350.86;;;1.96;70.60
50592;BME280;36548;50.506;30.834;2022-12-18T01:46:26;100341.02;;;2.01;69.52
50592;BME280;36548;50.506;30.834;2022-12-18T01:49:01;100353.13;;;2.10;68.72
50592;BME280;36548;50.506;30.834;2022-12-18T01:51:34;100340.27;;;1.96;68.82
50592;BME280;36548;50.506;30.834;2022-12-18T01:54:02;100332.42;;;1.93;69.93
50592;BME280;36548;50.506;30.834;2022-12-18T01:55:13;100344.38;;;1.75;70.00
50592;BME280;36548;50.506;30.834;2022-12-18T01:56:25;100320.12;;;1.58;69.94
50592;BME280;36548;50.506;30.834;2022-12-18T01:57:35;100335.20;;;1.54;70.71
50592;BME280;36548;50.506;30.834;2022-12-18T01:59:02;100338.20;;;1.40;70.71
50592;BME280;36548;50.506;30.834;2022-12-18T02:00:21;100347.70;;;1.49;71.47
50592;BME280;36548;50.506;30.834;2022-12-18T02:01:32;100350.27;;;1.16;71.24
50592;BME280;36548;50.506;30.834;2022-12-18T02:02:43;100352.70;;;1.25;71.43
50592;BME280;36548;50.506;30.834;2022-12-18T02:03:53;100359.52;;;1.34;71.46
50592;BME280;36548;50.506;30.834;2022-12-18T02:05:03;100348.81;;;1.39;71.16
50592;BME280;36548;50.506;30.834;2022-12-18T02:06:38;100346.50;;;1.61;71.13
50592;BME280;36548;50.506;30.834;2022-12-18T02:13:30;100371.88;;;1.68;69.33
50592;BME280;36548;50.506;30.834;2022-12-18T06:23:14;100771.48;;;-1.98;73.41
50592;BME280;36548;50.506;30.834;2022-12-18T06:24:23;100771.50;;;-2.06;72.78
50592;BME280;36548;50.506;30.834;2022-12-18T06:25:39;100776.68;;;-1.85;72.68
50592;BME280;36548;50.506;30.834;2022-12-18T06:26:47;100774.91;;;-1.85;72.21
50592;BME280;36548;50.506;30.834;2022-12-18T06:27:58;100755.55;;;-1.72;71.75
50592;BME280;36548;50.506;30.834;2022-12-18T06:29:08;100787.02;;;-1.53;71.26
50592;BME280;36548;50.506;30.834;2022-12-18T06:30:18;100784.36;;;-1.47;69.89
50592;BME280;36548;50.506;30.834;2022-12-18T06:31:27;100782.55;;;-1.37;69.28
50592;BME280;36548;50.506;30.834;2022-12-18T06:32:49;100775.29;;;-1.09;68.37
50592;BME280;36548;50.506;30.834;2022-12-18T07:44:30;100914.48;;;-2.22;72.10
50592;BME280;36548;50.506;30.834;2022-12-18T07:45:41;100923.23;;;-2.29;71.21
50592;BME280;36548;50.506;30.834;2022-12-18T07:46:56;100930.22;;;-2.00;71.50
50592;BME280;36548;50.506;30.834;2022-12-18T07:48:05;100931.98;;;-2.02;70.94
50592;BME280;36548;50.506;30.834;2022-12-18T07:49:17;100931.09;;;-1.94;69.93
50592;BME280;36548;50.506;30.834;2022-12-18T07:50:33;100934.50;;;-1.59;69.67
50592;BME280;36548;50.506;30.834;2022-12-18T07:51:42;100932.72;;;-1.51;69.34
50592;BME280;36548;50.506;30.834;2022-12-18T07:52:54;100940.53;;;-1.32;68.60
50592;BME280;36548;50.506;30.834;2022-12-18T07:54:04;100933.44;;;-1.16;68.09
50592;BME280;36548;50.506;30.834;2022-12-18T07:55:14;100944.88;;;-1.21;66.70
50592;BME280;36548;50.506;30.834;2022-12-18T07:56:23;100938.73;;;-1.24;66.27
50592;BME280;36548;50.506;30.834;2022-12-18T07:57:39;100937.83;;;-1.18;66.26
50592;BME280;36548;50.506;30.834;2022-12-18T07:58:50;100943.16;;;-1.31;66.32
50592;BME280;36548;50.506;30.834;2022-12-18T07:59:59;100946.68;;;-1.30;66.21
50592;BME280;36548;50.506;30.834;2022-12-18T08:01:13;100939.59;;;-1.19;65.97
50592;BME280;36548;50.506;30.834;2022-12-18T08:02:23;100943.16;;;-1.32;66.10
50592;BME280;36548;50.506;30.834;2022-12-18T08:03:32;100956.33;;;-1.32;65.93
50592;BME280;36548;50.506;30.834;2022-12-18T08:04:41;100956.32;;;-1.31;66.49
50592;BME280;36548;50.506;30.834;2022-12-18T08:05:50;100958.09;;;-1.38;66.18
50592;BME280;36548;50.506;30.834;2022-12-18T08:07:06;100946.65;;;-1.26;66.71
50592;BME280;36548;50.506;30.834;2022-12-18T08:08:14;100964.28;;;-1.40;66.53
50592;BME280;36548;50.506;30.834;2022-12-18T08:09:23;100961.64;;;-1.39;66.54
50592;BME280;36548;50.506;30.834;2022-12-18T08:10:39;100944.88;;;-1.25;66.26
50592;BME280;36548;50.506;30.834;2022-12-18T08:11:48;100960.77;;;-1.42;66.35
50592;BME280;36548;50.506;30.834;2022-12-18T08:12:57;100969.55;;;-1.40;66.93
50592;BME280;36548;50.506;30.834;2022-12-18T08:14:09;100980.95;;;-1.40;66.90
50592;BME280;36548;50.506;30.834;2022-12-18T08:15:18;100980.09;;;-1.46;66.55
50592;BME280;36548;50.506;30.834;2022-12-18T08:16:27;100979.19;;;-1.41;67.19
50592;BME280;36548;50.506;30.834;2022-12-18T08:17:38;100987.07;;;-1.38;67.28
50592;BME280;36548;50.506;30.834;2022-12-18T08:18:47;100994.13;;;-1.43;66.93
50592;BME280;36548;50.506;30.834;2022-12-18T08:20:03;100978.28;;;-1.29;67.14
50592;BME280;36548;50.506;30.834;2022-12-18T08:21:14;100995.91;;;-1.51;66.72
50592;BME280;36548;50.506;30.834;2022-12-18T08:22:24;100988.89;;;-1.53;66.87
50592;BME280;36548;50.506;30.834;2022-12-18T08:23:34;100981.88;;;-1.50;67.23
50592;BME280;36548;50.506;30.834;2022-12-18T08:24:44;100994.16;;;-1.52;66.93
50592;BME280;36548;50.506;30.834;2022-12-18T08:25:59;100988.84;;;-1.40;66.82
50592;BME280;36548;50.506;30.834;2022-12-18T08:27:10;100991.50;;;-1.49;66.78
50592;BME280;36548;50.506;30.834;2022-12-18T08:28:22;100990.64;;;-1.49;66.72
50592;BME280;36548;50.506;30.834;2022-12-18T08:29:31;101001.17;;;-1.57;66.10
50592;BME280;36548;50.506;30.834;2022-12-18T08:30:40;100998.55;;;-1.57;65.90
50592;BME280;36548;50.506;30.834;2022-12-18T08:31:55;100986.22;;;-1.40;66.34
50592;BME280;36548;50.506;30.834;2022-12-18T08:33:05;100995.04;;;-1.56;65.77
50592;BME280;36548;50.506;30.834;2022-12-18T08:34:15;101003.84;;;-1.69;65.80
50592;BME280;36548;50.506;30.834;2022-12-18T08:35:24;101001.19;;;-1.60;65.86
50592;BME280;36548;50.506;30.834;2022-12-18T08:36:36;101009.95;;;-1.52;66.29
50592;BME280;36548;50.506;30.834;2022-12-18T08:37:51;100995.88;;;-1.43;66.04
50592;BME280;36548;50.506;30.834;2022-12-18T08:39:00;101008.19;;;-1.45;66.41
50592;BME280;36548;50.506;30.834;2022-12-18T08:40:10;101004.66;;;-1.47;66.10
50592;BME280;36548;50.506;30.834;2022-12-18T08:41:27;101012.53;;;-1.30;66.54
50592;BME280;36548;50.506;30.834;2022-12-18T08:42:36;101011.67;;;-1.37;66.63
50592;BME280;36548;50.506;30.834;2022-12-18T08:44:03;101011.64;;;-1.32;66.76
50592;BME280;36548;50.506;30.834;2022-12-18T08:45:34;101006.37;;;-1.32;66.48
50592;BME280;36548;50.506;30.834;2022-12-18T08:46:44;100987.03;;;-1.27;66.66
50592;BME280;36548;50.506;30.834;2022-12-18T08:47:59;101004.59;;;-1.18;66.24
50592;BME280;36548;50.506;30.834;2022-12-18T08:49:08;101004.62;;;-1.30;66.02
50592;BME280;36548;50.506;30.834;2022-12-18T08:50:19;101015.16;;;-1.33;65.54
50592;BME280;36548;50.506;30.834;2022-12-18T08:51:28;101009.88;;;-1.33;65.92
50592;BME280;36548;50.506;30.834;2022-12-18T08:52:39;101013.43;;;-1.36;66.09
50592;BME280;36548;50.506;30.834;2022-12-18T08:53:48;101007.27;;;-1.30;66.42
50592;BME280;36548;50.506;30.834;2022-12-18T08:54:57;101008.99;;;-1.29;66.20
50592;BME280;36548;50.506;30.834;2022-12-18T08:56:07;101009.84;;;-1.21;66.68
50592;BME280;36548;50.506;30.834;2022-12-18T08:57:16;101002.82;;;-1.24;66.24
50592;BME280;36548;50.506;30.834;2022-12-18T08:58:31;101006.31;;;-1.11;66.22
50592;BME280;36548;50.506;30.834;2022-12-18T08:59:40;101006.34;;;-1.28;65.65
50592;BME280;36548;50.506;30.834;2022-12-18T09:00:49;101009.89;;;-1.29;65.68
50592;BME280;36548;50.506;30.834;2022-12-18T09:02:04;101004.56;;;-1.15;66.21
50592;BME280;36548;50.506;30.834;2022-12-18T09:03:15;101002.85;;;-1.28;65.92
50592;BME280;36548;50.506;30.834;2022-12-18T09:04:24;101016.93;;;-1.35;65.92
50592;BME280;36548;50.506;30.834;2022-12-18T09:05:39;101001.08;;;-1.28;66.02
50592;BME280;36548;50.506;30.834;2022-12-18T09:06:48;101020.46;;;-1.41;65.61
50592;BME280;36548;50.506;30.834;2022-12-18T09:07:57;101018.70;;;-1.42;65.63
50592;BME280;36548;50.506;30.834;2022-12-18T09:09:06;101015.19;;;-1.41;65.81
50592;BME280;36548;50.506;30.834;2022-12-18T09:10:16;101023.94;;;-1.38;65.82
50592;BME280;36548;50.506;30.834;2022-12-18T09:11:26;101030.11;;;-1.39;65.45
50592;BME280;36548;50.506;30.834;2022-12-18T09:12:36;101038.02;;;-1.40;65.39
50592;BME280;36548;50.506;30.834;2022-12-18T09:13:46;101034.50;;;-1.42;65.27
50592;BME280;36548;50.506;30.834;2022-12-18T09:15:01;101015.19;;;-1.41;64.79
50592;BME280;36548;50.506;30.834;2022-12-18T09:16:10;101015.23;;;-1.61;64.35
50592;BME280;36548;50.506;30.834;2022-12-18T09:17:18;101030.14;;;-1.59;64.02
50592;BME280;36548;50.506;30.834;2022-12-18T09:18:27;101031.05;;;-1.58;64.38
50592;BME280;36548;50.506;30.834;2022-12-18T09:19:36;101026.63;;;-1.56;64.36
50592;BME280;36548;50.506;30.834;2022-12-18T09:20:51;101028.39;;;-1.55;64.29
50592;BME280;36548;50.506;30.834;2022-12-18T09:22:01;101026.64;;;-1.65;64.58
50592;BME280;36548;50.506;30.834;2022-12-18T09:23:10;101029.27;;;-1.58;64.69
50592;BME280;36548;50.506;30.834;2022-12-18T09:24:26;101037.16;;;-1.53;64.12
50592;BME280;36548;50.506;30.834;2022-12-18T09:25:45;101036.31;;;-1.58;64.54
50592;BME280;36548;50.506;30.834;2022-12-18T09:26:54;101038.03;;;-1.56;64.68
50592;BME280;36548;50.506;30.834;2022-12-18T09:28:11;101033.66;;;-1.63;64.32
50592;BME280;36548;50.506;30.834;2022-12-18T09:29:24;101040.72;;;-1.68;64.18
50592;BME280;36548;50.506;30.834;2022-12-18T09:30:33;101043.35;;;-1.79;64.00
50592;BME280;36548;50.506;30.834;2022-12-18T09:31:48;101031.91;;;-1.65;64.18
50592;BME280;36548;50.506;30.834;2022-12-18T09:32:59;101051.23;;;-1.76;64.63
50592;BME280;36548;50.506;30.834;2022-12-18T09:34:08;101036.33;;;-1.70;64.93
50592;BME280;36548;50.506;30.834;2022-12-18T09:35:18;101051.23;;;-1.63;65.26
50592;BME280;36548;50.506;30.834;2022-12-18T09:36:28;101039.83;;;-1.62;65.02
50592;BME280;36548;50.506;30.834;2022-12-18T09:37:38;101045.09;;;-1.61;65.07
50592;BME280;36548;50.506;30.834;2022-12-18T09:38:53;101053.86;;;-1.62;64.93
50592;BME280;36548;50.506;30.834;2022-12-18T09:40:03;101048.57;;;-1.57;65.20
50592;BME280;36548;50.506;30.834;2022-12-18T09:44:26;101053.80;;;-1.34;64.74
50592;BME280;36548;50.506;30.834;2022-12-18T09:45:42;101052.08;;;-1.52;64.49
50592;BME280;36548;50.506;30.834;2022-12-18T09:47:03;101059.14;;;-1.66;64.67
50592;BME280;36548;50.506;30.834;2022-12-18T09:48:28;101055.62;;;-1.61;65.23
50592;BME280;36548;50.506;30.834;2022-12-18T09:49:43;101064.41;;;-1.66;65.06
50592;BME280;36548;50.506;30.834;2022-12-18T09:50:57;101053.86;;;-1.62;65.48
50592;BME280;36548;50.506;30.834;2022-12-18T09:52:19;101041.53;;;-1.47;65.24
50592;BME280;36548;50.506;30.834;2022-12-18T09:53:32;101051.20;;;-1.57;65.26
50592;BME280;36548;50.506;30.834;2022-12-18T09:56:07;101051.23;;;-1.66;65.24
50592;BME280;36548;50.506;30.834;2022-12-18T09:58:39;101050.32;;;-1.53;65.54
50592;BME280;36548;50.506;30.834;2022-12-18T14:37:01;101468.93;;;-2.81;75.38
50592;BME280;36548;50.506;30.834;2022-12-18T14:38:26;101485.55;;;-2.83;75.04
50592;BME280;36548;50.506;30.834;2022-12-18T14:39:35;101482.97;;;-2.80;74.67
50592;BME280;36548;50.506;30.834;2022-12-18T14:40:44;101487.45;;;-2.68;74.01
50592;BME280;36548;50.506;30.834;2022-12-18T14:41:53;101486.75;;;-2.50;73.74
50592;BME280;36548;50.506;30.834;2022-12-18T14:43:03;101487.79;;;-2.33;73.26
50592;BME280;36548;50.506;30.834;2022-12-18T14:44:13;101493.17;;;-2.17;72.23
50592;BME280;36548;50.506;30.834;2022-12-18T14:45:41;101495.05;;;-2.01;71.45
50592;BME280;36548;50.506;30.834;2022-12-18T14:46:53;101488.17;;;-1.82;71.07
50592;BME280;36548;50.506;30.834;2022-12-18T14:48:15;101487.37;;;-1.65;69.84
50592;BME280;36548;50.506;30.834;2022-12-18T14:49:34;101498.02;;;-1.50;69.68
50592;BME280;36548;50.506;30.834;2022-12-18T14:50:54;101494.59;;;-1.29;69.36
50592;BME280;36548;50.506;30.834;2022-12-18T14:53:37;101497.28;;;-1.18;67.82
50592;BME280;36548;50.506;30.834;2022-12-18T14:54:50;101505.94;;;-1.41;67.46
50592;BME280;36548;50.506;30.834;2022-12-18T14:56:03;101505.01;;;-1.50;67.72
50592;BME280;36548;50.506;30.834;2022-12-18T14:57:21;101499.73;;;-1.55;68.19
50592;BME280;36548;50.506;30.834;2022-12-18T14:58:37;101504.08;;;-1.60;68.62
50592;BME280;36548;50.506;30.834;2022-12-18T14:59:47;101504.81;;;-1.86;68.84
50592;BME280;36548;50.506;30.834;2022-12-18T15:01:08;101510.96;;;-1.82;69.07
50592;BME280;36548;50.506;30.834;2022-12-18T15:02:22;101510.88;;;-1.95;69.22
50592;BME280;36548;50.506;30.834;2022-12-18T15:03:33;101510.02;;;-1.92;69.82
50592;BME280;36548;50.506;30.834;2022-12-18T15:04:43;101517.05;;;-1.93;69.71
50592;BME280;36548;50.506;30.834;2022-12-18T15:06:15;101508.33;;;-1.84;69.73
50592;BME280;36548;50.506;30.834;2022-12-18T15:07:17;101518.75;;;-1.99;69.63
50592;BME280;36548;50.506;30.834;2022-12-18T15:13:05;101516.09;;;-2.02;70.30
50592;BME280;36548;50.506;30.834;2022-12-18T15:15:48;101528.13;;;-2.31;70.05
50592;BME280;36548;50.506;30.834;2022-12-18T15:16:59;101515.81;;;-2.33;70.17
50592;BME280;36548;50.506;30.834;2022-12-18T15:18:19;101527.36;;;-2.19;70.22
50592;BME280;36548;50.506;30.834;2022-12-18T15:20:59;101523.25;;;-1.83;69.59
50592;BME280;36548;50.506;30.834;2022-12-18T15:22:35;101530.30;;;-1.80;69.16
50592;BME280;36548;50.506;30.834;2022-12-18T15:23:47;101525.13;;;-1.66;68.56
50592;BME280;36548;50.506;30.834;2022-12-18T15:24:58;101537.48;;;-1.51;68.10
50592;BME280;36548;50.506;30.834;2022-12-18T15:26:09;101535.69;;;-1.57;67.46
50592;BME280;36548;50.506;30.834;2022-12-18T15:27:32;101540.15;;;-1.50;67.93
50592;BME280;36548;50.506;30.834;2022-12-18T15:28:54;101540.94;;;-1.62;68.27
50592;BME280;36548;50.506;30.834;2022-12-18T15:31:33;101546.98;;;-1.74;67.62
50592;BME280;36548;50.506;30.834;2022-12-18T15:32:47;101551.37;;;-1.77;68.67
50592;BME280;36548;50.506;30.834;2022-12-18T15:35:34;101554.95;;;-1.67;68.73
50592;BME280;36548;50.506;30.834;2022-12-18T15:36:45;101555.77;;;-1.76;68.81
50592;BME280;36548;50.506;30.834;2022-12-18T15:38:01;101555.80;;;-1.68;68.55
50592;BME280;36548;50.506;30.834;2022-12-18T15:39:12;101569.80;;;-1.77;68.85
50592;BME280;36548;50.506;30.834;2022-12-18T15:40:23;101570.66;;;-1.77;68.67
50592;BME280;36548;50.506;30.834;2022-12-18T15:41:34;101593.46;;;-1.82;68.10
50592;BME280;36548;50.506;30.834;2022-12-18T15:42:44;101590.77;;;-1.86;68.07
50592;BME280;36548;50.506;30.834;2022-12-18T15:44:23;101587.27;;;-1.87;68.49
50592;BME280;36548;50.506;30.834;2022-12-18T15:45:33;101582.00;;;-1.89;68.54
50592;BME280;36548;50.506;30.834;2022-12-18T15:46:44;101582.78;;;-1.97;68.25
50592;BME280;36548;50.506;30.834;2022-12-18T15:47:53;101582.83;;;-1.94;68.79
50592;BME280;36548;50.506;30.834;2022-12-18T15:49:28;101596.01;;;-1.91;68.60
50592;BME280;36548;50.506;30.834;2022-12-18T15:50:37;101593.16;;;-2.14;68.29
50592;BME280;36548;50.506;30.834;2022-12-18T15:53:05;101593.05;;;-2.25;68.60
50592;BME280;36548;50.506;30.834;2022-12-18T15:54:15;101594.80;;;-2.27;69.19
50592;BME280;36548;50.506;30.834;2022-12-18T15:55:25;101599.13;;;-2.32;69.06
50592;BME280;36548;50.506;30.834;2022-12-18T15:56:53;101608.70;;;-2.37;68.82
50592;BME280;36548;50.506;30.834;2022-12-18T15:58:20;101613.19;;;-2.30;69.40
50592;BME280;36548;50.506;30.834;2022-12-18T15:59:29;101612.28;;;-2.31;69.09
50592;BME280;36548;50.506;30.834;2022-12-18T16:00:39;101616.58;;;-2.39;68.78
50592;BME280;36548;50.506;30.834;2022-12-18T16:01:50;101613.05;;;-2.43;68.91
50592;BME280;36548;50.506;30.834;2022-12-18T16:03:03;101619.16;;;-2.45;68.97
50592;BME280;36548;50.506;30.834;2022-12-18T16:04:15;101623.52;;;-2.46;69.22
50592;BME280;36548;50.506;30.834;2022-12-18T16:05:26;101619.16;;;-2.45;69.37
50592;BME280;36548;50.506;30.834;2022-12-18T16:06:36;101615.70;;;-2.41;69.35
50592;BME280;36548;50.506;30.834;2022-12-18T16:07:47;101616.56;;;-2.41;69.39
50592;BME280;36548;50.506;30.834;2022-12-18T16:08:57;101631.46;;;-2.43;69.03
50592;BME280;36548;50.506;30.834;2022-12-18T16:10:12;101627.09;;;-2.39;68.89
50592;BME280;36548;50.506;30.834;2022-12-18T16:11:24;101630.48;;;-2.52;68.78
50592;BME280;36548;50.506;30.834;2022-12-18T16:12:50;101626.73;;;-2.71;68.87
50592;BME280;36548;50.506;30.834;2022-12-18T16:14:00;101634.58;;;-2.76;68.96
50592;BME280;36548;50.506;30.834;2022-12-18T16:15:16;101627.69;;;-2.66;69.69
50592;BME280;36548;50.506;30.834;2022-12-18T16:16:26;101627.53;;;-2.79;69.55
50592;BME280;36548;50.506;30.834;2022-12-18T16:17:37;101635.44;;;-2.77;69.55
50592;BME280;36548;50.506;30.834;2022-12-18T16:19:11;101631.13;;;-2.72;69.69
50592;BME280;36548;50.506;30.834;2022-12-18T16:20:22;101630.98;;;-2.83;69.59
50592;BME280;36548;50.506;30.834;2022-12-18T16:21:32;101643.30;;;-2.79;69.51
50592;BME280;36548;50.506;30.834;2022-12-18T16:22:44;101663.32;;;-2.88;69.24
50592;BME280;36548;50.506;30.834;2022-12-18T16:23:55;101656.41;;;-2.82;69.58
50592;BME280;36548;50.506;30.834;2022-12-18T16:25:25;101655.67;;;-2.70;69.68
50592;BME280;36548;50.506;30.834;2022-12-18T16:26:34;101652.02;;;-2.81;69.70
50592;BME280;36548;50.506;30.834;2022-12-18T16:27:43;101671.22;;;-2.87;69.61
50592;BME280;36548;50.506;30.834;2022-12-18T16:28:53;101670.38;;;-2.86;69.84
50592;BME280;36548;50.506;30.834;2022-12-18T16:31:28;101672.28;;;-2.72;69.99
50592;BME280;36548;50.506;30.834;2022-12-18T16:32:36;101670.42;;;-2.81;69.94
50592;BME280;36548;50.506;30.834;2022-12-18T16:35:23;101687.89;;;-2.83;69.64
50592;BME280;36548;50.506;30.834;2022-12-18T16:36:33;101677.48;;;-2.77;69.78
50592;BME280;36548;50.506;30.834;2022-12-18T16:37:48;101680.06;;;-2.82;69.48
50592;BME280;36548;50.506;30.834;2022-12-18T16:38:57;101681.59;;;-2.96;69.91
50592;BME280;36548;50.506;30.834;2022-12-18T16:40:14;101675.74;;;-2.75;70.16
50592;BME280;36548;50.506;30.834;2022-12-18T16:41:24;101684.36;;;-2.87;69.79
50592;BME280;36548;50.506;30.834;2022-12-18T16:42:44;101687.86;;;-2.86;69.71
50592;BME280;36548;50.506;30.834;2022-12-18T16:43:53;101684.41;;;-2.82;69.60
50592;BME280;36548;50.506;30.834;2022-12-18T16:45:04;101681.88;;;-2.76;69.71